createdAt,value
2022-11-22T00:00:25.164Z,99336.31
2022-11-22T00:02:51.709Z,99335.28
2022-11-22T00:05:18.273Z,99328.72
2022-11-22T00:07:44.767Z,99322.06
2022-11-22T00:10:13.397Z,99324.09
2022-11-22T00:12:40.707Z,99324.91
2022-11-22T00:15:07.799Z,99315.28
2022-11-22T00:17:35.137Z,99311.09
2022-11-22T00:20:01.640Z,99300.28
2022-11-22T00:22:28.076Z,99295.84
2022-11-22T00:24:54.707Z,99284.72
2022-11-22T00:27:21.347Z,99284.72
2022-11-22T00:29:47.849Z,99286.25
2022-11-22T00:32:14.304Z,99282.94
2022-11-22T00:34:40.858Z,99273.59
2022-11-22T00:37:08.096Z,99271.16
2022-11-22T00:39:34.581Z,99263.84
2022-11-22T00:42:01.024Z,99256.81
2022-11-22T00:44:27.516Z,99237.13
2022-11-22T00:46:54.284Z,99238.00
2022-11-22T00:49:20.735Z,99245.03
2022-11-22T00:51:47.197Z,99242.72
2022-11-22T00:54:13.686Z,99227.38
2022-11-22T00:56:40.099Z,99219.69
2022-11-22T00:59:06.561Z,99220.22
2022-11-22T01:01:33.191Z,99216.66
2022-11-22T01:04:00.151Z,99209.88
2022-11-22T01:06:26.592Z,99202.09
2022-11-22T01:08:53.338Z,99192.75
2022-11-22T01:11:20.353Z,99184.94
2022-11-22T01:13:46.877Z,99185.97
2022-11-22T01:16:14.003Z,99188.88
2022-11-22T01:18:40.758Z,99181.72
2022-11-22T01:21:07.509Z,99172.16
2022-11-22T01:23:34.905Z,99172.16
2022-11-22T01:26:02.415Z,99163.72
2022-11-22T01:28:28.908Z,99157.94
2022-11-22T01:30:55.443Z,99152.25
2022-11-22T01:33:22.014Z,99155.72
2022-11-22T01:35:48.628Z,99140.13
2022-11-22T01:38:15.406Z,99132.44
2022-11-22T01:40:41.876Z,99123.22
2022-11-22T01:47:04.250Z,99111.91
2022-11-22T01:49:40.640Z,99100.53
2022-11-22T01:52:12.781Z,99088.53
2022-11-22T01:54:42.452Z,99085.19
2022-11-22T01:57:14.535Z,99069.59
2022-11-22T01:59:48.895Z,99064.72
2022-11-22T02:02:15.448Z,99052.72
2022-11-22T02:04:43.804Z,99042.47
2022-11-22T02:07:18.033Z,99030.56
2022-11-22T02:09:46.308Z,99024.44
2022-11-22T02:12:13.374Z,99023.31
2022-11-22T02:14:40.660Z,99021.88
2022-11-22T02:17:07.194Z,99006.00
2022-11-22T02:19:41.724Z,99011.31
2022-11-22T02:22:38.609Z,99010.22
2022-11-22T02:25:23.758Z,98998.66
2022-11-22T02:27:50.754Z,98994.56
2022-11-22T02:30:17.624Z,98989.66
2022-11-22T02:32:44.309Z,98982.19
2022-11-22T02:35:16.774Z,98982.31
2022-11-22T02:37:43.289Z,98982.19
2022-11-22T02:40:14.934Z,98978.63
2022-11-22T02:42:46.252Z,98975.31
2022-11-22T02:45:12.846Z,98978.88
2022-11-22T02:47:39.251Z,98977.06
2022-11-22T02:50:06.219Z,98967.41
2022-11-22T02:52:32.656Z,98969.72
2022-11-22T02:54:59.059Z,98963.06
2022-11-22T02:57:25.573Z,98960.38
2022-11-22T02:59:52.021Z,98950.47
2022-11-22T03:02:18.432Z,98942.59
2022-11-22T03:04:44.835Z,98937.25
2022-11-22T03:07:11.315Z,98931.00
2022-11-22T03:09:37.862Z,98927.78
2022-11-22T03:12:04.371Z,98929.78
2022-11-22T03:14:30.854Z,98924.88
2022-11-22T03:16:57.258Z,98924.88
2022-11-22T03:19:23.701Z,98919.22
2022-11-22T03:21:50.976Z,98910.53
2022-11-22T03:24:18.027Z,98906.75
2022-11-22T03:26:48.969Z,98891.88
2022-11-22T03:29:16.847Z,98892.75
2022-11-22T03:31:43.351Z,98891.22
2022-11-22T03:34:11.953Z,98894.53
2022-11-22T03:36:38.387Z,98907.44
2022-11-22T03:39:04.819Z,98899.88
2022-11-22T03:41:31.306Z,98895.44
2022-11-22T03:43:57.722Z,98894.78
2022-11-22T03:46:24.225Z,98895.53
2022-11-22T03:48:50.664Z,98888.09
2022-11-22T03:51:17.354Z,98882.06
2022-11-22T03:53:43.776Z,98887.31
2022-11-22T03:56:10.265Z,98894.19
2022-11-22T03:58:36.815Z,98891.63
2022-11-22T04:01:03.473Z,98883.75
2022-11-22T04:03:30.053Z,98882.41
2022-11-22T04:05:56.595Z,98884.75
2022-11-22T04:08:23.322Z,98877.22
2022-11-22T04:10:50.550Z,98885.97
2022-11-22T04:13:17.582Z,98887.84
2022-11-22T04:15:44.114Z,98885.09
2022-11-22T04:18:12.370Z,98880.19
2022-11-22T04:20:57.742Z,98871.75
2022-11-22T04:23:32.255Z,98866.72
2022-11-22T04:26:00.367Z,98864.06
2022-11-22T04:29:01.481Z,98858.16
2022-11-22T04:31:33.303Z,98863.28
2022-11-22T04:33:59.743Z,98863.28
2022-11-22T04:36:26.158Z,98857.59
2022-11-22T04:38:52.606Z,98859.16
2022-11-22T04:41:19.020Z,98854.25
2022-11-22T04:44:04.196Z,98856.59
2022-11-22T04:46:31.509Z,98848.94
2022-11-22T04:48:58.045Z,98840.38
2022-11-22T04:51:42.825Z,98844.16
2022-11-22T04:54:09.219Z,98836.28
2022-11-22T04:56:35.660Z,98835.59
2022-11-22T04:59:02.103Z,98832.13
2022-11-22T05:01:28.559Z,98826.81
2022-11-22T05:03:54.981Z,98820.94
2022-11-22T05:06:21.399Z,98823.69
2022-11-22T05:08:47.846Z,98825.56
2022-11-22T05:11:14.318Z,98825.44
2022-11-22T05:13:42.309Z,98822.91
2022-11-22T05:16:11.232Z,98817.22
2022-11-22T05:18:38.054Z,98816.47
2022-11-22T05:21:10.474Z,98817.44
2022-11-22T05:23:55.042Z,98819.09
2022-11-22T05:26:27.989Z,98808.00
2022-11-22T05:28:54.913Z,98804.56
2022-11-22T05:31:23.483Z,98812.22
2022-11-22T05:33:52.371Z,98802.88
2022-11-22T05:36:19.092Z,98784.97
2022-11-22T05:38:45.523Z,98777.28
2022-11-22T05:41:13.866Z,98784.41
2022-11-22T05:43:41.007Z,98785.41
2022-11-22T05:46:24.652Z,98786.09
2022-11-22T05:48:52.971Z,98764.69
2022-11-22T05:51:21.700Z,98778.28
2022-11-22T05:53:48.560Z,98776.94
2022-11-22T05:56:18.244Z,98776.03
2022-11-22T05:58:45.206Z,98781.94
2022-11-22T06:01:14.781Z,98772.81
2022-11-22T06:03:41.258Z,98777.94
2022-11-22T06:06:09.323Z,98786.41
2022-11-22T06:08:39.180Z,98776.38
2022-11-22T06:11:07.743Z,98787.38
2022-11-22T06:13:39.047Z,98783.94
2022-11-22T06:16:07.293Z,98789.16
2022-11-22T06:18:34.646Z,98787.97
2022-11-22T06:21:03.428Z,98787.16
2022-11-22T06:23:30.544Z,98790.72
2022-11-22T06:26:11.858Z,98785.28
2022-11-22T06:28:40.009Z,98782.84
2022-11-22T06:31:09.905Z,98786.16
2022-11-22T06:33:36.642Z,98790.84
2022-11-22T06:36:14.539Z,98789.84
2022-11-22T06:38:42.605Z,98784.59
2022-11-22T06:41:10.973Z,98794.63
2022-11-22T06:43:41.404Z,98795.06
2022-11-22T06:46:12.248Z,98802.88
2022-11-22T06:48:40.490Z,98792.75
2022-11-22T06:51:10.806Z,98806.56
2022-11-22T06:53:51.995Z,98802.75
2022-11-22T06:56:24.737Z,98807.31
2022-11-22T06:58:52.858Z,98803.06
2022-11-22T07:01:20.977Z,98810.75
2022-11-22T07:03:48.466Z,98812.31
2022-11-22T07:06:17.163Z,98816.00
2022-11-22T07:08:43.906Z,98813.53
2022-11-22T07:11:14.133Z,98815.09
2022-11-22T07:13:40.821Z,98823.66
2022-11-22T07:16:08.787Z,98816.47
2022-11-22T07:18:35.209Z,98813.53
2022-11-22T07:21:13.761Z,98808.44
2022-11-22T07:23:45.187Z,98807.44
2022-11-22T07:26:12.930Z,98807.44
2022-11-22T07:28:39.802Z,98803.88
2022-11-22T07:31:08.711Z,98802.41
2022-11-22T07:33:36.068Z,98802.41
2022-11-22T07:36:10.762Z,98803.31
2022-11-22T07:38:37.687Z,98796.41
2022-11-22T07:41:05.251Z,98801.50
2022-11-22T07:43:31.832Z,98802.06
2022-11-22T07:46:03.033Z,98804.44
2022-11-22T07:48:29.692Z,98801.88
2022-11-22T07:50:56.185Z,98803.56
2022-11-22T07:53:23.266Z,98795.72
2022-11-22T07:55:49.748Z,98801.31
2022-11-22T07:58:16.172Z,98797.06
2022-11-22T08:00:42.723Z,98803.06
2022-11-22T08:03:09.234Z,98794.63
2022-11-22T08:05:35.765Z,98796.97
2022-11-22T08:08:02.243Z,98794.88
2022-11-22T08:10:28.725Z,98795.06
2022-11-22T08:12:58.805Z,98795.31
2022-11-22T08:15:25.440Z,98800.63
2022-11-22T08:17:52.091Z,98798.75
2022-11-22T08:20:18.557Z,98798.63
2022-11-22T08:22:44.989Z,98797.75
2022-11-22T08:25:14.160Z,98797.97
2022-11-22T08:27:42.069Z,98797.97
2022-11-22T08:30:10.030Z,98796.19
2022-11-22T08:32:36.922Z,98790.09
2022-11-22T08:35:04.251Z,98781.84
2022-11-22T08:37:30.812Z,98789.72
2022-11-22T08:39:57.395Z,98766.69
2022-11-22T08:42:24.195Z,98761.38
2022-11-22T08:44:50.648Z,98755.47
2022-11-22T08:47:17.614Z,98747.78
2022-11-22T08:49:44.225Z,98746.59
2022-11-22T08:52:10.695Z,98741.66
2022-11-22T08:54:38.183Z,98735.22
2022-11-22T08:57:05.413Z,98724.75
2022-11-22T08:59:32.450Z,98725.56
2022-11-22T09:01:59.345Z,98735.00
2022-11-22T09:04:26.162Z,98721.44
2022-11-22T09:09:38.959Z,98709.84
2022-11-22T09:12:05.787Z,98713.28
2022-11-22T09:14:32.252Z,98703.59
2022-11-22T09:16:58.663Z,98713.63
2022-11-22T09:19:25.151Z,98710.50
2022-11-22T09:21:51.636Z,98708.84
2022-11-22T09:24:18.055Z,98685.38
2022-11-22T09:26:44.629Z,98682.50
2022-11-22T09:29:11.106Z,98684.06
2022-11-22T09:31:37.570Z,98678.31
2022-11-22T09:34:04.125Z,98673.94
2022-11-22T09:36:30.961Z,98675.44
2022-11-22T09:38:57.425Z,98667.28
2022-11-22T09:41:42.576Z,98661.34
2022-11-22T09:44:59.595Z,98662.59
2022-11-22T09:47:37.960Z,98660.03
2022-11-22T09:50:31.048Z,98653.34
2022-11-22T09:53:04.438Z,98667.69
2022-11-22T09:55:40.987Z,98660.47
2022-11-22T09:58:10.460Z,98660.47
2022-11-22T10:00:41.130Z,98661.06
2022-11-22T10:03:26.104Z,98654.47
2022-11-22T10:05:56.547Z,98652.72
2022-11-22T10:08:41.131Z,98656.03
2022-11-22T10:11:18.783Z,98654.47
2022-11-22T10:13:54.377Z,98655.16
2022-11-22T10:16:29.675Z,98653.06
2022-11-22T10:19:02.760Z,98658.19
2022-11-22T10:21:29.282Z,98656.41
2022-11-22T10:23:55.746Z,98656.72
2022-11-22T10:26:34.145Z,98655.06
2022-11-22T10:29:12.653Z,98649.16
2022-11-22T10:31:57.294Z,98653.91
2022-11-22T10:34:29.723Z,98652.84
2022-11-22T10:37:02.275Z,98652.16
2022-11-22T10:39:42.527Z,98644.50
2022-11-22T10:42:18.179Z,98649.84
2022-11-22T10:44:57.684Z,98645.47
2022-11-22T10:47:39.496Z,98637.44
2022-11-22T10:50:06.068Z,98627.59
2022-11-22T10:52:53.929Z,98617.38
2022-11-22T10:55:25.976Z,98617.56
2022-11-22T10:57:52.432Z,98615.97
2022-11-22T11:00:24.863Z,98611.97
2022-11-22T11:02:56.899Z,98618.97
2022-11-22T11:05:29.622Z,98609.72
2022-11-22T11:08:21.713Z,98604.38
2022-11-22T11:10:47.296Z,98606.91
2022-11-22T11:13:29.884Z,98605.16
2022-11-22T11:16:01.701Z,98601.03
2022-11-22T11:18:36.281Z,98604.59
2022-11-22T11:21:06.622Z,98596.91
2022-11-22T11:23:34.749Z,98596.78
2022-11-22T11:26:15.072Z,98597.78
2022-11-22T11:28:41.579Z,98592.78
2022-11-22T11:31:10.399Z,98595.63
2022-11-22T11:33:39.167Z,98584.47
2022-11-22T11:36:20.235Z,98581.91
2022-11-22T11:38:46.694Z,98593.38
2022-11-22T11:41:29.502Z,98587.34
2022-11-22T11:44:01.616Z,98585.69
2022-11-22T11:46:29.939Z,98578.19
2022-11-22T11:49:10.647Z,98582.91
2022-11-22T11:51:42.634Z,98576.78
2022-11-22T11:54:15.738Z,98587.25
2022-11-22T11:56:51.921Z,98593.38
2022-11-22T11:59:20.665Z,98600.25
2022-11-22T12:01:55.554Z,98594.53
2022-11-22T12:04:25.434Z,98601.41
2022-11-22T12:07:16.336Z,98598.09
2022-11-22T12:09:45.770Z,98589.72
2022-11-22T12:12:38.581Z,98587.34
2022-11-22T12:15:14.708Z,98591.16
2022-11-22T12:17:52.663Z,98590.47
2022-11-22T12:20:25.055Z,98590.59
2022-11-22T12:23:04.814Z,98592.34
2022-11-22T12:25:40.320Z,98592.56
2022-11-22T12:28:23.182Z,98598.03
2022-11-22T12:30:55.612Z,98587.91
2022-11-22T12:33:33.521Z,98584.63
2022-11-22T12:36:02.382Z,98584.84
2022-11-22T12:38:36.581Z,98596.19
2022-11-22T12:41:07.582Z,98595.50
2022-11-22T12:43:42.029Z,98604.00
2022-11-22T12:46:25.991Z,98601.78
2022-11-22T12:48:57.866Z,98604.72
2022-11-22T12:51:44.475Z,98598.03
2022-11-22T12:54:16.314Z,98598.13
2022-11-22T12:56:53.247Z,98599.00
2022-11-22T12:59:38.561Z,98600.00
2022-11-22T13:02:04.950Z,98599.13
2022-11-22T13:05:00.396Z,98602.41
2022-11-22T13:07:36.089Z,98610.72
2022-11-22T13:10:20.529Z,98610.63
2022-11-22T13:12:48.688Z,98610.53
2022-11-22T13:15:25.815Z,98612.78
2022-11-22T13:17:53.319Z,98616.03
2022-11-22T13:20:41.191Z,98624.50
2022-11-22T13:23:45.744Z,98629.09
2022-11-22T13:26:21.183Z,98627.22
2022-11-22T13:28:50.127Z,98629.72
2022-11-22T13:31:19.507Z,98624.66
2022-11-22T13:34:01.366Z,98631.38
2022-11-22T13:36:27.748Z,98624.66
2022-11-22T13:39:00.472Z,98625.56
2022-11-22T13:41:52.147Z,98648.66
2022-11-22T13:44:25.851Z,98658.81
2022-11-22T13:46:53.954Z,98661.97
2022-11-22T13:49:47.974Z,98668.47
2022-11-22T13:52:15.363Z,98684.84
2022-11-22T13:54:48.051Z,98691.16
2022-11-22T13:57:36.503Z,98708.00
2022-11-22T14:00:12.420Z,98700.72
2022-11-22T14:02:46.494Z,98696.78
2022-11-22T14:05:25.632Z,98686.88
2022-11-22T14:07:56.863Z,98678.78
2022-11-22T14:10:40.091Z,98695.63
2022-11-22T14:13:24.554Z,98697.31
2022-11-22T14:15:58.588Z,98712.69
2022-11-22T14:18:43.579Z,98720.50
2022-11-22T14:21:17.683Z,98722.78
2022-11-22T14:24:11.373Z,98727.78
2022-11-22T14:26:57.939Z,98732.34
2022-11-22T14:29:53.569Z,98745.94
2022-11-22T14:32:25.361Z,98746.13
2022-11-22T14:35:03.651Z,98752.66
2022-11-22T14:37:31.759Z,98749.84
2022-11-22T14:40:12.663Z,98739.50
2022-11-22T14:42:40.422Z,98745.72
2022-11-22T14:45:12.792Z,98757.66
2022-11-22T14:47:45.437Z,98757.78
2022-11-22T14:50:33.570Z,98753.00
2022-11-22T14:53:21.414Z,98765.84
2022-11-22T14:55:50.222Z,98762.28
2022-11-22T14:58:24.380Z,98757.03
2022-11-22T15:01:18.485Z,98762.66
2022-11-22T15:09:19.925Z,98758.31
2022-11-22T15:09:21.957Z,98774.69
2022-11-22T15:10:48.409Z,98775.47
2022-11-22T15:13:41.978Z,98778.81
2022-11-22T15:57:28.265Z,98783.41
2022-11-22T15:59:55.651Z,98778.28
2022-11-22T16:02:29.656Z,98785.09
2022-11-22T16:06:09.767Z,98793.75
2022-11-22T16:08:03.864Z,98796.97
2022-11-22T16:10:42.342Z,98791.78
2022-11-22T16:13:33.239Z,98801.44
2022-11-22T16:16:11.995Z,98797.50
2022-11-22T16:18:43.510Z,98804.22
2022-11-22T16:21:10.572Z,98805.78
2022-11-22T16:23:38.445Z,98821.72
2022-11-22T16:26:30.274Z,98823.50
2022-11-22T16:29:18.094Z,98823.72
2022-11-22T16:31:44.577Z,98825.47
2022-11-22T16:34:16.179Z,98830.03
2022-11-22T16:36:42.795Z,98831.69
2022-11-22T16:39:09.202Z,98834.16
2022-11-22T16:41:35.952Z,98831.91
2022-11-22T16:44:10.832Z,98834.38
2022-11-22T16:46:37.228Z,98831.00
2022-11-22T16:49:31.643Z,98834.47
2022-11-22T16:51:58.155Z,98846.31
2022-11-22T16:54:24.606Z,98848.63
2022-11-22T16:56:51.056Z,98849.31
2022-11-22T16:59:17.500Z,98850.88
2022-11-22T17:01:44.339Z,98856.91
2022-11-22T17:04:25.318Z,98858.16
2022-11-22T17:06:52.285Z,98864.06
2022-11-22T17:09:18.883Z,98865.06
2022-11-22T17:11:45.494Z,98864.50
2022-11-22T17:14:17.019Z,98865.38
2022-11-22T17:16:45.749Z,98864.38
2022-11-22T17:19:37.588Z,98854.72
2022-11-22T17:21:58.767Z,98855.59
2022-11-22T17:24:25.558Z,98867.63
2022-11-22T17:26:52.207Z,98867.75
2022-11-22T17:29:43.277Z,98875.50
2022-11-22T17:32:05.348Z,98874.31
2022-11-22T17:34:32.145Z,98871.63
2022-11-22T17:36:58.812Z,98866.75
2022-11-22T17:39:25.312Z,98868.41
2022-11-22T17:41:51.785Z,98872.75
2022-11-22T17:44:18.471Z,98865.84
2022-11-22T17:46:46.199Z,98861.50
2022-11-22T17:49:16.042Z,98866.81
2022-11-22T17:51:43.140Z,98870.94
2022-11-22T17:54:09.626Z,98871.38
2022-11-22T17:56:37.173Z,98878.88
2022-11-22T17:59:04.207Z,98875.63
2022-11-22T18:01:30.756Z,98872.75
2022-11-22T18:03:57.216Z,98867.63
2022-11-22T18:06:26.062Z,98877.31
2022-11-22T18:08:52.539Z,98878.06
2022-11-22T18:11:19.117Z,98893.69
2022-11-22T18:13:45.563Z,98888.75
2022-11-22T18:16:15.266Z,98887.75
2022-11-22T18:18:56.838Z,98887.44
2022-11-22T18:21:24.540Z,98893.25
2022-11-22T18:23:51.085Z,98899.94
2022-11-22T18:26:38.711Z,98907.81
2022-11-22T18:31:52.951Z,98902.81
2022-11-22T18:34:20.258Z,98898.47
2022-11-22T18:36:57.716Z,98900.94
2022-11-22T18:39:27.573Z,98905.63
2022-11-22T18:41:54.072Z,98903.09
2022-11-22T18:44:20.521Z,98908.09
2022-11-22T18:46:47.908Z,98915.03
2022-11-22T18:49:14.463Z,98919.91
2022-11-22T18:51:41.071Z,98924.94
2022-11-22T18:54:08.728Z,98931.84
2022-11-22T18:56:37.881Z,98941.19
2022-11-22T18:59:06.181Z,98945.78
2022-11-22T19:01:34.664Z,98943.91
2022-11-22T19:04:01.832Z,98936.88
2022-11-22T19:06:28.576Z,98942.56
2022-11-22T19:08:55.345Z,98945.69
2022-11-22T19:11:21.936Z,98942.34
2022-11-22T19:13:48.439Z,98949.66
2022-11-22T19:16:18.101Z,98953.44
2022-11-22T19:18:45.616Z,98955.81
2022-11-22T19:21:15.189Z,98955.69
2022-11-22T19:23:42.112Z,98954.03
2022-11-22T19:26:11.328Z,98951.38
2022-11-22T19:28:37.782Z,98957.16
2022-11-22T19:31:10.956Z,98951.03
2022-11-22T19:33:37.848Z,98945.13
2022-11-22T19:36:06.743Z,98954.94
2022-11-22T19:38:33.242Z,98959.81
2022-11-22T19:40:59.753Z,98957.25
2022-11-22T19:43:26.170Z,98962.72
2022-11-22T19:45:52.658Z,98959.06
2022-11-22T19:48:19.199Z,98957.38
2022-11-22T19:50:45.844Z,98961.38
2022-11-22T19:53:12.300Z,98963.06
2022-11-22T19:55:45.289Z,98961.03
2022-11-22T19:58:12.273Z,98964.19
2022-11-22T20:00:38.781Z,98966.28
2022-11-22T20:03:05.217Z,98954.84
2022-11-22T20:05:32.235Z,98963.06
2022-11-22T20:07:59.061Z,98966.50
2022-11-22T20:10:26.006Z,98966.63
2022-11-22T20:12:52.590Z,98960.72
2022-11-22T20:15:19.325Z,98959.69
2022-11-22T20:17:45.746Z,98960.81
2022-11-22T20:20:12.277Z,98960.56
2022-11-22T20:22:38.708Z,98959.03
2022-11-22T20:25:05.851Z,98963.59
2022-11-22T20:27:32.476Z,98965.34
2022-11-22T20:30:01.215Z,98967.91
2022-11-22T20:32:29.086Z,98970.47
2022-11-22T20:34:55.564Z,98975.72
2022-11-22T20:37:22.097Z,98978.16
2022-11-22T20:39:48.610Z,98978.94
2022-11-22T20:45:03.473Z,98980.34
2022-11-22T20:47:30.770Z,98980.88
2022-11-22T20:49:57.194Z,98984.00
2022-11-22T20:52:23.652Z,98988.13
2022-11-22T20:54:50.049Z,98984.78
2022-11-22T20:57:16.569Z,98986.56
2022-11-22T20:59:43.103Z,98982.34
2022-11-22T21:02:12.505Z,98989.00
2022-11-22T21:04:39.062Z,98994.53
2022-11-22T21:07:05.622Z,99000.97
2022-11-22T21:09:32.384Z,98997.97
2022-11-22T21:11:58.867Z,99004.94
2022-11-22T21:14:25.340Z,99002.91
2022-11-22T21:16:51.829Z,99010.66
2022-11-22T21:19:19.269Z,99011.59
2022-11-22T21:21:45.771Z,99016.25
2022-11-22T21:24:13.399Z,99020.31
2022-11-22T21:26:40.623Z,99013.38
2022-11-22T21:29:16.021Z,99016.72
2022-11-22T21:31:43.130Z,99019.38
2022-11-22T21:34:09.713Z,99027.31
2022-11-22T21:36:36.210Z,99035.72
2022-11-22T21:39:02.775Z,99031.41
2022-11-22T21:41:39.715Z,99043.41
2022-11-22T21:44:07.500Z,99045.03
2022-11-22T21:46:33.980Z,99038.25
2022-11-22T21:49:00.483Z,99046.03
2022-11-22T21:51:27.062Z,99046.69
2022-11-22T21:54:01.056Z,99050.66
2022-11-22T21:56:27.923Z,99050.44
2022-11-22T21:58:54.883Z,99058.41
2022-11-22T22:01:21.591Z,99067.78
2022-11-22T22:03:48.119Z,99072.09
2022-11-22T22:06:14.668Z,99084.47
2022-11-22T22:08:41.217Z,99080.63
2022-11-22T22:11:08.090Z,99082.94
2022-11-22T22:13:34.893Z,99083.31
2022-11-22T22:16:06.479Z,99086.66
2022-11-22T22:18:36.104Z,99092.19
2022-11-22T22:21:07.687Z,99097.69
2022-11-22T22:23:35.304Z,99098.59
2022-11-22T22:26:03.577Z,99103.69
2022-11-22T22:28:31.973Z,99107.03
2022-11-22T22:31:09.591Z,99105.13
2022-11-22T22:33:38.250Z,99111.22
2022-11-22T22:36:06.245Z,99116.97
2022-11-22T22:38:33.521Z,99124.38
2022-11-22T22:41:02.035Z,99131.00
2022-11-22T22:43:34.386Z,99137.50
2022-11-22T22:46:06.595Z,99130.13
2022-11-22T22:48:33.661Z,99137.00
2022-11-22T22:51:07.572Z,99136.47
2022-11-22T22:53:34.640Z,99138.16
2022-11-22T22:56:01.143Z,99141.06
2022-11-22T22:58:28.033Z,99155.13
2022-11-22T23:00:54.622Z,99157.53
2022-11-22T23:03:21.386Z,99155.13
2022-11-22T23:05:48.532Z,99171.41
2022-11-22T23:08:16.098Z,99173.72
2022-11-22T23:10:44.211Z,99171.41
2022-11-22T23:13:10.890Z,99182.25
2022-11-22T23:15:57.344Z,99178.06
2022-11-22T23:18:24.972Z,99180.63
2022-11-22T23:20:51.424Z,99186.56
2022-11-22T23:23:18.194Z,99190.50
2022-11-22T23:25:44.621Z,99191.66
2022-11-22T23:28:11.025Z,99185.94
2022-11-22T23:30:37.455Z,99192.06
2022-11-22T23:33:03.890Z,99196.88
2022-11-22T23:35:30.471Z,99197.91
2022-11-22T23:37:56.947Z,99190.41
2022-11-22T23:40:23.365Z,99191.03
2022-11-22T23:42:49.789Z,99198.47
2022-11-22T23:45:16.338Z,99200.00
2022-11-22T23:47:42.776Z,99201.63
2022-11-22T23:50:09.715Z,99197.03
2022-11-22T23:52:36.202Z,99200.44
2022-11-22T23:55:02.703Z,99196.63
2022-11-22T23:57:29.379Z,99207.13
2022-11-22T23:59:56.078Z,99207.50
